createdAt,value
2023-05-07T00:01:06.913Z,5.00
2023-05-07T00:03:36.397Z,4.73
2023-05-07T00:06:04.695Z,3.80
2023-05-07T00:08:32.693Z,4.87
2023-05-07T00:11:00.708Z,4.30
2023-05-07T00:13:31.687Z,4.27
2023-05-07T00:15:59.740Z,4.13
2023-05-07T00:18:27.746Z,4.40
2023-05-07T00:20:57.292Z,4.13
2023-05-07T00:23:25.439Z,4.07
2023-05-07T00:25:53.449Z,4.50
2023-05-07T00:28:21.417Z,3.80
2023-05-07T00:30:49.464Z,4.47
2023-05-07T00:33:17.637Z,4.00
2023-05-07T00:35:45.675Z,4.03
2023-05-07T00:38:15.040Z,4.40
2023-05-07T00:40:43.098Z,4.47
2023-05-07T00:43:11.145Z,4.97
2023-05-07T00:45:39.514Z,4.87
2023-05-07T00:48:07.802Z,4.57
2023-05-07T00:50:35.876Z,4.50
2023-05-07T00:53:04.556Z,4.40
2023-05-07T00:55:35.438Z,4.73
2023-05-07T00:58:03.496Z,4.73
2023-05-07T01:00:31.676Z,4.50
2023-05-07T01:02:59.970Z,4.23
2023-05-07T01:05:30.239Z,4.60
2023-05-07T01:08:00.339Z,4.30
2023-05-07T01:10:28.875Z,5.00
2023-05-07T01:12:58.955Z,5.23
2023-05-07T01:15:27.068Z,5.13
2023-05-07T01:17:55.223Z,4.57
2023-05-07T01:20:24.670Z,5.03
2023-05-07T01:22:55.321Z,4.37
2023-05-07T01:25:23.530Z,6.03
2023-05-07T01:27:51.549Z,5.60
2023-05-07T01:30:22.762Z,5.30
2023-05-07T01:32:53.276Z,5.30
2023-05-07T01:35:23.499Z,4.80
2023-05-07T01:37:53.343Z,4.93
2023-05-07T01:40:21.736Z,5.43
2023-05-07T01:42:50.384Z,5.33
2023-05-07T01:45:18.578Z,5.07
2023-05-07T01:47:46.906Z,4.80
2023-05-07T01:50:16.490Z,4.90
2023-05-07T01:52:44.598Z,4.83
2023-05-07T01:55:14.383Z,5.43
2023-05-07T01:57:42.419Z,4.97
2023-05-07T02:00:11.383Z,5.10
2023-05-07T02:02:40.394Z,5.50
2023-05-07T02:05:09.175Z,5.17
2023-05-07T02:07:37.201Z,4.90
2023-05-07T02:10:06.136Z,4.97
2023-05-07T02:12:35.674Z,5.00
2023-05-07T02:15:03.817Z,4.97
2023-05-07T02:17:32.954Z,4.93
2023-05-07T02:20:01.303Z,5.10
2023-05-07T02:22:29.317Z,4.93
2023-05-07T02:24:57.334Z,5.37
2023-05-07T02:27:25.397Z,5.00
2023-05-07T02:29:54.764Z,5.20
2023-05-07T02:32:24.209Z,5.40
2023-05-07T02:34:53.306Z,5.50
2023-05-07T02:37:21.322Z,4.90
2023-05-07T02:39:49.353Z,5.50
2023-05-07T02:42:17.376Z,5.33
2023-05-07T02:44:45.434Z,5.77
2023-05-07T02:47:16.739Z,5.43
2023-05-07T02:49:44.731Z,5.30
2023-05-07T02:52:12.740Z,5.33
2023-05-07T02:54:40.767Z,6.20
2023-05-07T02:57:08.794Z,6.13
2023-05-07T02:59:36.910Z,6.20
2023-05-07T03:02:04.993Z,6.50
2023-05-07T03:04:34.548Z,6.20
2023-05-07T03:07:02.748Z,7.03
2023-05-07T03:09:30.777Z,6.97
2023-05-07T03:11:59.049Z,8.03
2023-05-07T03:14:27.092Z,6.77
2023-05-07T03:16:55.542Z,6.63
2023-05-07T03:19:23.572Z,6.43
2023-05-07T03:21:53.023Z,7.20
2023-05-07T03:24:21.028Z,7.57
2023-05-07T03:26:49.231Z,7.40
2023-05-07T03:29:17.240Z,7.30
2023-05-07T03:31:46.172Z,7.87
2023-05-07T03:34:14.200Z,6.33
2023-05-07T03:36:42.264Z,7.57
2023-05-07T03:39:11.658Z,7.27
2023-05-07T03:41:39.702Z,7.37
2023-05-07T03:44:07.916Z,6.80
2023-05-07T03:46:36.300Z,6.97
2023-05-07T03:49:04.380Z,7.47
2023-05-07T03:51:32.642Z,6.73
2023-05-07T03:54:00.656Z,6.67
2023-05-07T03:56:30.552Z,7.43
2023-05-07T03:58:58.636Z,6.87
2023-05-07T04:01:27.211Z,6.40
2023-05-07T04:03:55.353Z,6.27
2023-05-07T04:06:23.652Z,6.07
2023-05-07T04:08:51.702Z,7.03
2023-05-07T04:11:19.702Z,6.77
2023-05-07T04:13:49.156Z,6.77
2023-05-07T04:16:17.204Z,6.10
2023-05-07T04:18:45.269Z,7.47
2023-05-07T04:21:16.882Z,6.83
2023-05-07T04:23:44.994Z,6.80
2023-05-07T04:26:13.002Z,6.80
2023-05-07T04:28:41.294Z,6.57
2023-05-07T04:31:10.748Z,6.97
2023-05-07T04:33:38.771Z,6.93
2023-05-07T04:36:07.167Z,7.07
2023-05-07T04:38:35.410Z,7.17
2023-05-07T04:41:06.243Z,7.37
2023-05-07T04:43:34.491Z,6.60
2023-05-07T04:46:02.599Z,7.83
2023-05-07T04:48:31.977Z,6.73
2023-05-07T04:51:00.006Z,7.10
2023-05-07T04:53:28.447Z,7.17
2023-05-07T04:55:59.839Z,7.07
2023-05-07T04:58:28.332Z,6.80
2023-05-07T05:00:57.474Z,6.70
2023-05-07T05:03:26.014Z,7.37
2023-05-07T05:05:55.463Z,7.17
2023-05-07T05:08:23.456Z,6.93
2023-05-07T05:10:51.814Z,7.50
2023-05-07T05:13:19.967Z,7.77
2023-05-07T05:15:48.237Z,6.50
2023-05-07T05:18:16.289Z,6.47
2023-05-07T05:20:44.764Z,6.43
2023-05-07T05:23:14.240Z,5.70
2023-05-07T05:25:42.285Z,6.20
2023-05-07T05:28:10.399Z,6.00
2023-05-07T05:30:38.429Z,5.97
2023-05-07T05:33:06.494Z,6.63
2023-05-07T05:35:35.919Z,6.03
2023-05-07T05:38:04.514Z,5.90
2023-05-07T05:40:34.337Z,6.37
2023-05-07T05:43:02.338Z,6.17
2023-05-07T05:45:30.444Z,6.13
2023-05-07T05:47:59.006Z,5.87
2023-05-07T05:50:27.123Z,5.93
2023-05-07T05:52:55.147Z,5.70
2023-05-07T05:55:23.753Z,6.37
2023-05-07T05:57:53.176Z,5.40
2023-05-07T06:00:23.417Z,6.13
2023-05-07T06:02:51.591Z,5.40
2023-05-07T06:05:19.803Z,4.97
2023-05-07T06:07:47.995Z,5.20
2023-05-07T06:10:16.128Z,5.67
2023-05-07T06:12:44.214Z,5.80
2023-05-07T06:15:13.886Z,5.77
2023-05-07T06:17:41.923Z,6.07
2023-05-07T06:20:11.205Z,5.50
2023-05-07T06:22:39.430Z,5.63
2023-05-07T06:25:08.295Z,5.67
2023-05-07T06:27:36.299Z,5.80
2023-05-07T06:30:04.711Z,6.30
2023-05-07T06:32:34.231Z,6.10
2023-05-07T06:35:02.287Z,6.27
2023-05-07T06:37:30.308Z,6.60
2023-05-07T06:39:59.888Z,5.77
2023-05-07T06:42:28.495Z,6.20
2023-05-07T06:44:56.531Z,5.63
2023-05-07T06:47:24.545Z,5.70
2023-05-07T06:49:53.993Z,5.43
2023-05-07T06:52:22.037Z,5.63
2023-05-07T06:54:50.119Z,5.60
2023-05-07T06:57:18.152Z,5.23
2023-05-07T06:59:46.188Z,4.97
2023-05-07T07:02:14.622Z,4.67
2023-05-07T07:04:43.960Z,4.57
2023-05-07T07:07:13.549Z,4.47
2023-05-07T07:09:41.604Z,4.20
2023-05-07T07:12:09.622Z,4.60
2023-05-07T07:14:37.632Z,4.50
2023-05-07T07:17:06.240Z,4.60
2023-05-07T07:19:34.340Z,4.40
2023-05-07T07:22:02.320Z,4.60
2023-05-07T07:24:31.690Z,4.60
2023-05-07T07:26:59.723Z,4.60
2023-05-07T07:29:28.064Z,4.90
2023-05-07T07:31:56.237Z,4.70
2023-05-07T07:34:24.439Z,5.23
2023-05-07T07:36:52.607Z,5.20
2023-05-07T07:39:20.666Z,5.67
2023-05-07T07:41:50.049Z,5.87
2023-05-07T07:44:18.275Z,5.67
2023-05-07T07:46:46.388Z,5.63
2023-05-07T07:49:14.492Z,5.17
2023-05-07T07:51:42.576Z,6.27
2023-05-07T07:54:10.721Z,5.17
2023-05-07T07:56:38.816Z,5.40
2023-05-07T07:59:08.197Z,4.87
2023-05-07T08:01:36.224Z,5.30
2023-05-07T08:04:06.591Z,4.50
2023-05-07T08:06:34.724Z,4.73
2023-05-07T08:09:03.017Z,4.57
2023-05-07T08:11:31.193Z,3.83
2023-05-07T08:13:59.257Z,4.73
2023-05-07T08:16:30.959Z,5.03
2023-05-07T08:18:59.242Z,5.20
2023-05-07T08:21:27.315Z,5.87
2023-05-07T08:23:55.474Z,5.30
2023-05-07T08:26:23.540Z,4.90
2023-05-07T08:28:51.698Z,5.03
2023-05-07T08:31:19.936Z,5.77
2023-05-07T08:33:49.415Z,4.70
2023-05-07T08:36:17.432Z,5.33
2023-05-07T08:38:46.744Z,4.60
2023-05-07T08:41:14.930Z,4.23
2023-05-07T08:43:43.939Z,4.17
2023-05-07T08:46:12.963Z,4.20
2023-05-07T08:48:41.333Z,3.53
2023-05-07T08:51:14.634Z,3.80
2023-05-07T08:53:43.495Z,3.93
2023-05-07T08:56:11.992Z,3.97
2023-05-07T08:58:40.205Z,3.60
2023-05-07T09:01:10.991Z,3.70
2023-05-07T09:03:40.490Z,3.30
2023-05-07T09:06:10.021Z,4.77
2023-05-07T09:08:38.123Z,3.70
2023-05-07T09:11:06.275Z,3.67
2023-05-07T09:13:34.330Z,3.50
2023-05-07T09:16:12.785Z,3.50
2023-05-07T09:18:43.960Z,3.40
2023-05-07T09:21:16.927Z,3.70
2023-05-07T09:23:44.971Z,2.97
2023-05-07T09:26:13.653Z,3.30
2023-05-07T09:28:43.089Z,2.90
2023-05-07T09:31:12.064Z,3.10
2023-05-07T09:33:40.732Z,2.60
2023-05-07T09:36:10.905Z,2.93
2023-05-07T09:38:40.606Z,2.60
2023-05-07T09:41:10.596Z,3.17
2023-05-07T09:43:40.105Z,2.93
2023-05-07T09:46:10.584Z,2.77
2023-05-07T09:48:40.889Z,3.27
2023-05-07T09:51:23.652Z,3.10
2023-05-07T09:53:54.734Z,3.20
2023-05-07T09:56:23.915Z,3.07
2023-05-07T09:58:54.735Z,3.73
2023-05-07T10:01:24.055Z,3.67
2023-05-07T10:03:53.599Z,3.10
2023-05-07T10:06:22.502Z,3.00
2023-05-07T10:08:53.104Z,3.00
2023-05-07T10:11:21.598Z,2.80
2023-05-07T10:13:50.914Z,2.97
2023-05-07T10:16:20.189Z,2.70
2023-05-07T10:18:49.404Z,3.13
2023-05-07T10:21:20.321Z,3.20
2023-05-07T10:23:53.567Z,2.97
2023-05-07T10:26:24.344Z,2.90
2023-05-07T10:28:58.321Z,3.33
2023-05-07T10:31:50.945Z,3.23
2023-05-07T10:34:22.827Z,2.87
2023-05-07T10:36:52.849Z,2.70
2023-05-07T10:39:23.498Z,3.10
2023-05-07T10:41:51.808Z,2.30
2023-05-07T10:44:29.957Z,2.47
2023-05-07T10:47:27.681Z,2.70
2023-05-07T10:50:23.808Z,2.70
2023-05-07T10:53:29.588Z,3.30
2023-05-07T10:56:30.050Z,3.20
2023-05-07T10:59:18.634Z,3.10
2023-05-07T11:01:55.174Z,2.50
2023-05-07T11:04:27.524Z,2.13
2023-05-07T11:07:26.692Z,2.20
2023-05-07T11:10:05.368Z,2.50
2023-05-07T11:12:59.911Z,2.67
2023-05-07T11:15:43.054Z,2.40
2023-05-07T11:18:12.330Z,2.00
2023-05-07T11:20:55.120Z,2.33
2023-05-07T11:24:09.003Z,3.17
2023-05-07T11:26:48.300Z,2.17
2023-05-07T11:29:21.820Z,2.97
2023-05-07T11:31:52.536Z,2.80
2023-05-07T11:34:24.749Z,2.90
2023-05-07T11:36:53.263Z,3.07
2023-05-07T11:39:32.562Z,2.63
2023-05-07T11:42:00.747Z,2.90
2023-05-07T11:44:47.372Z,2.97
2023-05-07T11:47:19.972Z,2.50
2023-05-07T11:49:49.606Z,2.50
2023-05-07T11:52:18.516Z,3.23
2023-05-07T11:54:51.397Z,2.70
2023-05-07T11:57:19.528Z,2.67
2023-05-07T11:59:49.213Z,2.50
2023-05-07T12:02:17.896Z,3.07
2023-05-07T12:04:46.693Z,2.80
2023-05-07T12:07:21.069Z,2.27
2023-05-07T12:09:50.101Z,2.40
2023-05-07T12:12:18.438Z,2.13
2023-05-07T12:14:48.810Z,2.40
2023-05-07T12:17:18.385Z,2.60
2023-05-07T12:19:47.222Z,2.60
2023-05-07T12:22:15.556Z,2.47
2023-05-07T12:24:47.711Z,2.23
2023-05-07T12:27:16.183Z,2.67
2023-05-07T12:29:48.812Z,2.40
2023-05-07T12:32:17.719Z,2.50
2023-05-07T12:34:46.201Z,2.40
2023-05-07T12:37:14.809Z,2.40
2023-05-07T12:39:47.077Z,2.23
2023-05-07T12:42:18.207Z,2.00
2023-05-07T12:44:49.050Z,2.10
2023-05-07T12:47:17.794Z,1.77
2023-05-07T12:49:46.944Z,2.23
2023-05-07T12:52:15.487Z,2.00
2023-05-07T12:54:43.488Z,2.07
2023-05-07T12:57:12.232Z,1.93
2023-05-07T12:59:41.527Z,1.93
2023-05-07T13:02:11.802Z,1.90
2023-05-07T13:04:39.921Z,2.07
2023-05-07T13:07:07.968Z,1.73
2023-05-07T13:09:38.027Z,2.10
2023-05-07T13:12:07.214Z,1.83
2023-05-07T13:14:35.250Z,1.90
2023-05-07T13:17:03.338Z,1.97
2023-05-07T13:19:32.749Z,1.80
2023-05-07T13:22:00.782Z,2.13
2023-05-07T13:24:28.821Z,2.10
2023-05-07T13:26:56.855Z,1.97
2023-05-07T13:29:29.611Z,1.53
2023-05-07T13:31:58.519Z,2.20
2023-05-07T13:34:26.569Z,1.70
2023-05-07T13:36:56.516Z,1.90
2023-05-07T13:39:24.522Z,1.90
2023-05-07T13:41:52.561Z,1.60
2023-05-07T13:44:20.960Z,2.00
2023-05-07T13:46:49.010Z,2.03
2023-05-07T13:49:17.040Z,1.50
2023-05-07T13:51:45.072Z,1.63
2023-05-07T13:54:14.469Z,1.90
2023-05-07T13:56:42.524Z,1.43
2023-05-07T13:59:10.535Z,1.70
2023-05-07T14:01:38.588Z,1.80
2023-05-07T14:04:06.904Z,1.70
2023-05-07T14:06:34.929Z,1.83
2023-05-07T14:09:03.153Z,1.80
2023-05-07T14:11:33.879Z,1.60
2023-05-07T14:14:02.740Z,1.90
2023-05-07T14:16:30.819Z,1.87
2023-05-07T14:18:59.018Z,1.93
2023-05-07T14:21:27.099Z,2.23
2023-05-07T14:23:55.237Z,1.90
2023-05-07T14:26:24.265Z,3.30
2023-05-07T14:28:53.637Z,1.83
2023-05-07T14:31:21.716Z,2.10
2023-05-07T14:33:50.806Z,2.07
2023-05-07T14:36:20.894Z,1.90
2023-05-07T14:38:48.987Z,2.10
2023-05-07T14:41:17.503Z,2.03
2023-05-07T14:43:50.749Z,2.23
2023-05-07T14:46:21.260Z,2.03
2023-05-07T14:48:49.501Z,2.30
2023-05-07T14:51:17.492Z,2.23
2023-05-07T14:53:45.545Z,2.13
2023-05-07T14:56:13.542Z,1.93
2023-05-07T14:58:41.590Z,1.63
2023-05-07T15:01:09.653Z,2.50
2023-05-07T15:03:39.230Z,2.10
2023-05-07T15:06:07.525Z,2.60
2023-05-07T15:08:35.552Z,2.40
2023-05-07T15:11:03.592Z,2.60
2023-05-07T15:13:32.225Z,2.70
2023-05-07T15:16:00.344Z,2.50
2023-05-07T15:18:28.395Z,2.43
2023-05-07T15:20:58.030Z,2.60
2023-05-07T15:23:27.187Z,2.30
2023-05-07T15:25:55.514Z,2.50
2023-05-07T15:28:25.510Z,4.03
2023-05-07T15:30:55.060Z,2.63
2023-05-07T15:33:24.371Z,2.67
2023-05-07T15:35:52.438Z,2.80
2023-05-07T15:38:21.831Z,2.53
2023-05-07T15:40:50.791Z,2.97
2023-05-07T15:43:18.814Z,2.83
2023-05-07T15:45:46.886Z,2.90
2023-05-07T15:48:14.863Z,2.80
2023-05-07T15:50:43.050Z,2.90
2023-05-07T15:53:13.637Z,2.33
2023-05-07T15:55:44.341Z,2.90
2023-05-07T15:58:12.607Z,2.67
2023-05-07T16:00:43.829Z,2.93
2023-05-07T16:03:11.930Z,2.60
2023-05-07T16:05:40.057Z,2.63
2023-05-07T16:08:08.366Z,2.60
2023-05-07T16:10:36.401Z,2.40
2023-05-07T16:13:05.813Z,2.30
2023-05-07T16:15:33.868Z,2.43
2023-05-07T16:18:01.910Z,2.17
2023-05-07T16:20:31.089Z,2.50
2023-05-07T16:22:59.398Z,2.30
2023-05-07T16:25:27.512Z,2.30
2023-05-07T16:27:55.799Z,2.33
2023-05-07T16:30:25.187Z,2.37
2023-05-07T16:32:53.276Z,2.10
2023-05-07T16:35:21.624Z,2.23
2023-05-07T16:37:49.667Z,2.20
2023-05-07T16:40:17.755Z,3.40
2023-05-07T16:42:45.771Z,2.67
2023-05-07T16:45:13.853Z,2.20
2023-05-07T16:47:43.445Z,2.27
2023-05-07T16:50:12.099Z,2.53
2023-05-07T16:52:40.081Z,2.00
2023-05-07T16:55:08.777Z,2.37
2023-05-07T16:57:36.782Z,2.30
2023-05-07T17:00:07.480Z,2.30
2023-05-07T17:02:36.103Z,2.23
2023-05-07T17:05:06.542Z,2.10
2023-05-07T17:07:35.089Z,2.27
2023-05-07T17:10:03.922Z,1.80
2023-05-07T17:12:32.689Z,2.30
2023-05-07T17:15:00.768Z,2.37
2023-05-07T17:17:29.102Z,2.50
2023-05-07T17:19:57.207Z,2.20
2023-05-07T17:22:26.812Z,2.23
2023-05-07T17:24:54.877Z,2.10
2023-05-07T17:27:22.953Z,1.97
2023-05-07T17:29:51.113Z,2.00
2023-05-07T17:32:19.119Z,1.90
2023-05-07T17:34:47.123Z,2.00
2023-05-07T17:37:15.821Z,2.00
2023-05-07T17:39:45.498Z,2.20
2023-05-07T17:42:13.542Z,2.37
2023-05-07T17:44:41.680Z,2.10
2023-05-07T17:47:09.672Z,2.13
2023-05-07T17:49:38.329Z,2.27
2023-05-07T17:52:06.616Z,2.10
2023-05-07T17:54:34.637Z,2.50
2023-05-07T17:57:04.039Z,2.03
2023-05-07T17:59:32.671Z,1.93
2023-05-07T18:02:00.697Z,1.83
2023-05-07T18:04:28.753Z,2.20
2023-05-07T18:06:57.319Z,1.73
2023-05-07T18:09:25.379Z,2.07
2023-05-07T18:11:53.365Z,2.20
2023-05-07T18:14:26.120Z,1.87
2023-05-07T18:16:55.009Z,1.90
2023-05-07T18:19:23.047Z,2.40
2023-05-07T18:21:51.489Z,2.23
2023-05-07T18:24:19.892Z,2.00
2023-05-07T18:26:49.113Z,2.03
2023-05-07T18:29:17.185Z,2.67
2023-05-07T18:31:47.786Z,2.20
2023-05-07T18:34:15.871Z,2.30
2023-05-07T18:36:44.136Z,1.90
2023-05-07T18:39:12.292Z,1.97
2023-05-07T18:41:40.467Z,2.20
2023-05-07T18:44:08.514Z,2.27
2023-05-07T18:46:36.586Z,2.07
2023-05-07T18:49:05.990Z,2.20
2023-05-07T18:51:34.048Z,2.30
2023-05-07T18:54:02.236Z,2.20
2023-05-07T18:56:30.408Z,2.30
2023-05-07T18:58:58.429Z,2.20
2023-05-07T19:01:26.585Z,2.17
2023-05-07T19:03:54.708Z,2.20
2023-05-07T19:06:24.678Z,2.30
2023-05-07T19:08:52.787Z,2.10
2023-05-07T19:11:20.906Z,2.43
2023-05-07T19:13:48.938Z,1.90
2023-05-07T19:16:17.099Z,2.30
2023-05-07T19:18:45.186Z,2.40
2023-05-07T19:21:13.302Z,2.07
2023-05-07T19:23:42.737Z,2.33
2023-05-07T19:26:11.164Z,2.17
2023-05-07T19:28:42.271Z,2.00
2023-05-07T19:31:19.911Z,2.10
2023-05-07T19:33:48.011Z,2.37
2023-05-07T19:36:17.278Z,2.17
2023-05-07T19:38:47.006Z,2.10
2023-05-07T19:41:15.047Z,2.47
2023-05-07T19:43:43.146Z,2.33
2023-05-07T19:46:11.282Z,2.00
2023-05-07T19:48:39.308Z,1.90
2023-05-07T19:51:07.322Z,2.20
2023-05-07T19:53:35.347Z,2.37
2023-05-07T19:56:09.018Z,2.30
2023-05-07T19:58:37.510Z,2.10
2023-05-07T20:01:06.735Z,2.27
2023-05-07T20:03:35.757Z,2.03
2023-05-07T20:06:04.340Z,2.00
2023-05-07T20:08:32.396Z,2.13
2023-05-07T20:11:00.785Z,2.53
2023-05-07T20:13:30.213Z,2.03
2023-05-07T20:15:59.322Z,2.37
2023-05-07T20:18:28.633Z,2.10
2023-05-07T20:20:57.453Z,2.20
2023-05-07T20:23:25.484Z,2.20
2023-05-07T20:25:53.555Z,2.07
2023-05-07T20:28:21.747Z,1.90
2023-05-07T20:30:51.174Z,1.83
2023-05-07T20:33:19.291Z,2.30
2023-05-07T20:35:47.377Z,2.03
2023-05-07T20:38:15.499Z,2.20
2023-05-07T20:40:43.552Z,2.00
2023-05-07T20:43:11.590Z,2.10
2023-05-07T20:45:39.727Z,2.20
2023-05-07T20:48:09.127Z,2.13
2023-05-07T20:50:37.276Z,2.00
2023-05-07T20:53:05.274Z,2.13
2023-05-07T20:55:33.277Z,2.20
2023-05-07T20:58:01.351Z,2.17
2023-05-07T21:00:29.434Z,2.17
2023-05-07T21:02:57.492Z,1.87
2023-05-07T21:05:26.906Z,2.23
2023-05-07T21:07:54.918Z,2.30
2023-05-07T21:10:23.048Z,1.90
2023-05-07T21:12:51.082Z,2.47
2023-05-07T21:15:19.378Z,2.47
2023-05-07T21:17:47.392Z,2.10
2023-05-07T21:20:15.961Z,2.57
2023-05-07T21:22:45.688Z,2.07
2023-05-07T21:25:13.779Z,2.07
2023-05-07T21:27:41.765Z,2.33
2023-05-07T21:30:11.416Z,2.50
2023-05-07T21:32:39.606Z,2.30
2023-05-07T21:35:08.893Z,2.13
2023-05-07T21:37:36.936Z,2.40
2023-05-07T21:40:07.496Z,2.50
2023-05-07T21:42:35.669Z,2.43
2023-05-07T21:45:06.284Z,2.20
2023-05-07T21:47:34.345Z,2.20
2023-05-07T21:50:02.996Z,2.43
2023-05-07T21:52:31.321Z,2.40
2023-05-07T21:54:59.362Z,2.40
2023-05-07T21:57:28.769Z,2.33
2023-05-07T21:59:56.803Z,2.93
2023-05-07T22:02:24.993Z,2.47
2023-05-07T22:04:53.114Z,2.07
2023-05-07T22:07:21.509Z,2.47
2023-05-07T22:09:49.512Z,2.00
2023-05-07T22:12:17.711Z,2.37
2023-05-07T22:14:47.080Z,2.50
2023-05-07T22:17:15.097Z,2.37
2023-05-07T22:19:43.097Z,2.77
2023-05-07T22:22:11.400Z,2.10
2023-05-07T22:24:39.428Z,2.50
2023-05-07T22:27:07.488Z,2.23
2023-05-07T22:29:35.509Z,2.50
2023-05-07T22:32:05.180Z,2.30
2023-05-07T22:34:33.284Z,2.30
2023-05-07T22:37:01.305Z,2.63
2023-05-07T22:39:34.256Z,2.10
2023-05-07T22:42:03.253Z,2.90
2023-05-07T22:44:31.256Z,2.47
2023-05-07T22:46:59.291Z,2.57
2023-05-07T22:49:28.756Z,3.00
2023-05-07T22:51:56.745Z,2.60
2023-05-07T22:54:25.700Z,2.60
2023-05-07T22:56:54.006Z,2.83
2023-05-07T22:59:22.263Z,2.50
2023-05-07T23:01:50.279Z,3.07
2023-05-07T23:04:18.497Z,2.90
2023-05-07T23:06:48.003Z,3.10
2023-05-07T23:09:16.399Z,2.63
2023-05-07T23:11:44.525Z,3.10
2023-05-07T23:14:12.653Z,2.97
2023-05-07T23:16:40.696Z,2.90
2023-05-07T23:19:08.760Z,2.80
2023-05-07T23:21:36.963Z,3.10
2023-05-07T23:24:07.555Z,3.17
2023-05-07T23:26:35.580Z,3.33
2023-05-07T23:29:04.572Z,3.40
2023-05-07T23:31:32.646Z,3.50
2023-05-07T23:34:00.668Z,3.57
2023-05-07T23:36:28.782Z,3.60
2023-05-07T23:38:56.754Z,3.50
2023-05-07T23:41:26.205Z,3.43
2023-05-07T23:43:54.708Z,3.37
2023-05-07T23:46:22.867Z,3.53
2023-05-07T23:48:50.952Z,3.27
2023-05-07T23:51:18.985Z,3.50
2023-05-07T23:53:47.025Z,3.87
2023-05-07T23:56:15.052Z,3.60
2023-05-07T23:58:44.607Z,3.40
